メインページ
METAR-TAF:

METAR-TAF

空港 :

ヘラート, アフガニスタン

緯度: 34-13N, 経度: 062-13E, 海抜: 964m

現時点の気象観測

当レポートは1時間16分前の17:30(UTC)に作成
北東の風 8kt
気温 15°C
湿度 29%
気圧 1021 hPa
視程10km以上
1,500メートル以下は雲なし、積乱雲なし

METAR: OAHR 231730Z 05008KT CAVOK 15/M03 Q1021 RMK CLOSED A3015 BLU

時間: 23:16 (18:46 UTC)

予報

当レポートは1時間46分前の17:00(UTC)に作成
予報は23日の 18時(UTC)から 24日の 18時(UTC)まで有効
変向風 3kt
視程10km以上
1,500メートル以下は雲なし、積乱雲なし
24日の 03時(UTC)から 24日の 05時(UTC)まで徐々に
北/北西の風 6kt
24日の 11時(UTC)から 24日の 14時(UTC)まで一時的に
北東の風 13kt
24日の 15時(UTC)から 24日の 17時(UTC)まで徐々に
変向風 3kt

TAF: OAHR 231700Z 2318/2418 VRB03KT CAVOK BECMG 2403/2405 33006KT TEMPO 2411/2414 04013KT BECMG 2415/2417 VRB03KT

4,000以上の空港の気象観測と天気予報(METAR報とTAF報)

利用可能な観測所は地図上に黄色い丸と赤い丸で示す。

丸の上にカーソルを重ねると観測所名を参照できる。

次にクリックすると気象観測と天気予報を参照できる。

マップの切り替え:黒色「×」印の緑ボタンをクリックして拡大、「-」印の緑ボタンをクリックして縮小、緑色の三角印をクリックして隣りの地図に切り替え


METAR-TAF: